sensor_id;sensor_type;location;lat;lon;timestamp;temperature;humidity
71297;SHT31;59082;50.658;4.608;2022-09-01T00:00:51;17.39;79.58
71297;SHT31;59082;50.658;4.608;2022-09-01T00:03:19;17.32;79.70
71297;SHT31;59082;50.658;4.608;2022-09-01T00:05:48;17.31;79.80
71297;SHT31;59082;50.658;4.608;2022-09-01T00:08:14;17.23;79.93
71297;SHT31;59082;50.658;4.608;2022-09-01T00:10:40;17.23;79.91
71297;SHT31;59082;50.658;4.608;2022-09-01T00:13:06;17.21;79.99
71297;SHT31;59082;50.658;4.608;2022-09-01T00:15:34;17.21;79.87
71297;SHT31;59082;50.658;4.608;2022-09-01T00:18:00;17.15;79.89
71297;SHT31;59082;50.658;4.608;2022-09-01T00:20:26;17.17;79.98
71297;SHT31;59082;50.658;4.608;2022-09-01T00:22:52;17.11;80.09
71297;SHT31;59082;50.658;4.608;2022-09-01T00:25:18;17.07;80.20
71297;SHT31;59082;50.658;4.608;2022-09-01T00:27:45;17.07;80.09
71297;SHT31;59082;50.658;4.608;2022-09-01T00:30:11;17.10;80.17
71297;SHT31;59082;50.658;4.608;2022-09-01T00:32:37;17.08;80.11
71297;SHT31;59082;50.658;4.608;2022-09-01T00:35:03;17.10;80.13
71297;SHT31;59082;50.658;4.608;2022-09-01T00:37:29;17.06;80.29
71297;SHT31;59082;50.658;4.608;2022-09-01T00:39:55;17.02;80.29
71297;SHT31;59082;50.658;4.608;2022-09-01T00:42:20;16.97;80.36
71297;SHT31;59082;50.658;4.608;2022-09-01T00:44:46;16.99;80.35
71297;SHT31;59082;50.658;4.608;2022-09-01T00:47:11;16.97;80.43
71297;SHT31;59082;50.658;4.608;2022-09-01T00:49:40;16.97;80.34
71297;SHT31;59082;50.658;4.608;2022-09-01T00:52:47;16.90;80.41
71297;SHT31;59082;50.658;4.608;2022-09-01T00:55:15;16.91;80.64
71297;SHT31;59082;50.658;4.608;2022-09-01T00:57:42;16.80;80.76
71297;SHT31;59082;50.658;4.608;2022-09-01T01:00:20;16.75;80.85
71297;SHT31;59082;50.658;4.608;2022-09-01T01:02:48;16.72;81.04
71297;SHT31;59082;50.658;4.608;2022-09-01T01:05:17;16.67;81.13
71297;SHT31;59082;50.658;4.608;2022-09-01T01:07:45;16.62;81.23
71297;SHT31;59082;50.658;4.608;2022-09-01T01:10:12;16.58;81.38
71297;SHT31;59082;50.658;4.608;2022-09-01T01:12:39;16.52;81.56
71297;SHT31;59082;50.658;4.608;2022-09-01T01:15:10;16.51;81.62
71297;SHT31;59082;50.658;4.608;2022-09-01T01:17:36;16.49;81.76
71297;SHT31;59082;50.658;4.608;2022-09-01T01:20:03;16.48;81.80
71297;SHT31;59082;50.658;4.608;2022-09-01T01:23:38;16.51;81.66
71297;SHT31;59082;50.658;4.608;2022-09-01T01:26:07;16.59;81.41
71297;SHT31;59082;50.658;4.608;2022-09-01T01:28:36;16.67;81.31
71297;SHT31;59082;50.658;4.608;2022-09-01T01:31:14;16.69;81.15
71297;SHT31;59082;50.658;4.608;2022-09-01T01:33:43;16.67;81.05
71297;SHT31;59082;50.658;4.608;2022-09-01T01:39:22;16.49;81.36
71297;SHT31;59082;50.658;4.608;2022-09-01T01:41:50;16.44;81.54
71297;SHT31;59082;50.658;4.608;2022-09-01T01:44:19;16.41;81.53
71297;SHT31;59082;50.658;4.608;2022-09-01T01:46:48;16.39;81.49
71297;SHT31;59082;50.658;4.608;2022-09-01T01:49:16;16.31;81.52
71297;SHT31;59082;50.658;4.608;2022-09-01T01:51:44;16.29;81.72
71297;SHT31;59082;50.658;4.608;2022-09-01T01:54:12;16.24;81.77
71297;SHT31;59082;50.658;4.608;2022-09-01T01:56:38;16.19;81.77
71297;SHT31;59082;50.658;4.608;2022-09-01T01:59:06;16.15;81.86
71297;SHT31;59082;50.658;4.608;2022-09-01T02:01:34;16.11;81.97
71297;SHT31;59082;50.658;4.608;2022-09-01T02:04:01;16.01;82.03
71297;SHT31;59082;50.658;4.608;2022-09-01T02:06:32;15.98;82.08
71297;SHT31;59082;50.658;4.608;2022-09-01T02:08:58;15.96;82.18
71297;SHT31;59082;50.658;4.608;2022-09-01T02:11:29;15.91;82.19
71297;SHT31;59082;50.658;4.608;2022-09-01T02:13:58;15.89;82.29
71297;SHT31;59082;50.658;4.608;2022-09-01T02:16:29;15.86;82.28
71297;SHT31;59082;50.658;4.608;2022-09-01T02:18:57;15.81;82.49
71297;SHT31;59082;50.658;4.608;2022-09-01T02:21:24;15.80;82.42
71297;SHT31;59082;50.658;4.608;2022-09-01T02:23:56;15.79;82.60
71297;SHT31;59082;50.658;4.608;2022-09-01T02:26:33;15.74;82.69
71297;SHT31;59082;50.658;4.608;2022-09-01T02:29:02;15.80;82.22
71297;SHT31;59082;50.658;4.608;2022-09-01T02:31:33;15.81;82.22
71297;SHT31;59082;50.658;4.608;2022-09-01T02:34:05;15.90;81.94
71297;SHT31;59082;50.658;4.608;2022-09-01T02:36:35;15.94;81.80
71297;SHT31;59082;50.658;4.608;2022-09-01T02:39:02;16.04;81.60
71297;SHT31;59082;50.658;4.608;2022-09-01T02:41:28;16.10;81.24
71297;SHT31;59082;50.658;4.608;2022-09-01T02:43:56;16.15;81.10
71297;SHT31;59082;50.658;4.608;2022-09-01T02:46:22;16.21;80.89
71297;SHT31;59082;50.658;4.608;2022-09-01T02:48:47;16.24;80.80
71297;SHT31;59082;50.658;4.608;2022-09-01T02:51:17;16.21;80.83
71297;SHT31;59082;50.658;4.608;2022-09-01T02:53:44;16.19;80.70
71297;SHT31;59082;50.658;4.608;2022-09-01T02:56:12;16.15;80.76
71297;SHT31;59082;50.658;4.608;2022-09-01T02:58:40;16.12;80.70
71297;SHT31;59082;50.658;4.608;2022-09-01T03:01:31;16.02;80.89
71297;SHT31;59082;50.658;4.608;2022-09-01T03:04:00;15.96;81.08
71297;SHT31;59082;50.658;4.608;2022-09-01T03:06:27;15.91;81.20
71297;SHT31;59082;50.658;4.608;2022-09-01T03:08:56;15.86;81.33
71297;SHT31;59082;50.658;4.608;2022-09-01T03:11:25;15.84;81.39
71297;SHT31;59082;50.658;4.608;2022-09-01T03:13:51;15.83;81.54
71297;SHT31;59082;50.658;4.608;2022-09-01T03:16:18;15.80;81.52
71297;SHT31;59082;50.658;4.608;2022-09-01T03:18:43;15.81;81.45
71297;SHT31;59082;50.658;4.608;2022-09-01T03:21:09;15.81;81.36
71297;SHT31;59082;50.658;4.608;2022-09-01T03:23:39;15.80;81.25
71297;SHT31;59082;50.658;4.608;2022-09-01T03:26:04;15.86;81.21
71297;SHT31;59082;50.658;4.608;2022-09-01T03:28:30;15.80;81.32
71297;SHT31;59082;50.658;4.608;2022-09-01T03:30:57;15.80;81.35
71297;SHT31;59082;50.658;4.608;2022-09-01T03:33:24;15.76;81.42
71297;SHT31;59082;50.658;4.608;2022-09-01T03:35:50;15.77;81.47
71297;SHT31;59082;50.658;4.608;2022-09-01T03:38:16;15.74;81.49
71297;SHT31;59082;50.658;4.608;2022-09-01T03:40:45;15.70;81.66
71297;SHT31;59082;50.658;4.608;2022-09-01T03:43:11;15.67;81.75
71297;SHT31;59082;50.658;4.608;2022-09-01T03:45:39;15.62;81.95
71297;SHT31;59082;50.658;4.608;2022-09-01T03:48:06;15.62;81.95
71297;SHT31;59082;50.658;4.608;2022-09-01T03:50:38;15.59;82.01
71297;SHT31;59082;50.658;4.608;2022-09-01T03:53:06;15.57;82.19
71297;SHT31;59082;50.658;4.608;2022-09-01T03:55:33;15.52;82.34
71297;SHT31;59082;50.658;4.608;2022-09-01T03:58:02;15.46;82.52
71297;SHT31;59082;50.658;4.608;2022-09-01T04:00:32;15.39;82.82
71297;SHT31;59082;50.658;4.608;2022-09-01T04:03:01;15.35;82.96
71297;SHT31;59082;50.658;4.608;2022-09-01T04:05:30;15.29;83.11
71297;SHT31;59082;50.658;4.608;2022-09-01T04:08:03;15.22;83.22
71297;SHT31;59082;50.658;4.608;2022-09-01T04:10:32;15.19;83.45
71297;SHT31;59082;50.658;4.608;2022-09-01T04:12:58;15.12;83.69
71297;SHT31;59082;50.658;4.608;2022-09-01T04:15:26;15.05;83.88
71297;SHT31;59082;50.658;4.608;2022-09-01T04:17:52;14.97;84.20
71297;SHT31;59082;50.658;4.608;2022-09-01T04:20:39;14.91;84.53
71297;SHT31;59082;50.658;4.608;2022-09-01T04:23:25;14.84;84.80
71297;SHT31;59082;50.658;4.608;2022-09-01T04:26:17;14.74;85.08
71297;SHT31;59082;50.658;4.608;2022-09-01T04:28:48;14.67;85.35
71297;SHT31;59082;50.658;4.608;2022-09-01T04:31:19;14.64;85.60
71297;SHT31;59082;50.658;4.608;2022-09-01T04:33:47;14.56;85.88
71297;SHT31;59082;50.658;4.608;2022-09-01T04:36:20;14.55;86.10
71297;SHT31;59082;50.658;4.608;2022-09-01T04:38:50;14.46;86.32
71297;SHT31;59082;50.658;4.608;2022-09-01T04:41:21;14.47;86.54
71297;SHT31;59082;50.658;4.608;2022-09-01T04:43:48;14.46;86.60
71297;SHT31;59082;50.658;4.608;2022-09-01T04:46:17;14.47;86.65
71297;SHT31;59082;50.658;4.608;2022-09-01T04:48:43;14.49;86.63
71297;SHT31;59082;50.658;4.608;2022-09-01T04:51:13;14.46;86.76
71297;SHT31;59082;50.658;4.608;2022-09-01T04:53:40;14.43;86.92
71297;SHT31;59082;50.658;4.608;2022-09-01T04:56:07;14.43;86.94
71297;SHT31;59082;50.658;4.608;2022-09-01T04:58:35;14.46;86.95
71297;SHT31;59082;50.658;4.608;2022-09-01T05:01:02;14.44;86.96
71297;SHT31;59082;50.658;4.608;2022-09-01T05:03:37;14.44;87.17
71297;SHT31;59082;50.658;4.608;2022-09-01T05:06:03;14.39;87.24
71297;SHT31;59082;50.658;4.608;2022-09-01T05:08:29;14.33;87.46
71297;SHT31;59082;50.658;4.608;2022-09-01T05:11:02;14.30;87.57
71297;SHT31;59082;50.658;4.608;2022-09-01T05:13:32;14.32;87.64
71297;SHT31;59082;50.658;4.608;2022-09-01T05:16:07;14.32;87.69
71297;SHT31;59082;50.658;4.608;2022-09-01T05:18:39;14.32;87.89
71297;SHT31;59082;50.658;4.608;2022-09-01T05:21:08;14.32;87.91
71297;SHT31;59082;50.658;4.608;2022-09-01T05:23:36;14.34;87.77
71297;SHT31;59082;50.658;4.608;2022-09-01T05:26:02;14.40;87.72
71297;SHT31;59082;50.658;4.608;2022-09-01T05:28:30;14.47;87.70
71297;SHT31;59082;50.658;4.608;2022-09-01T05:30:59;14.50;87.65
71297;SHT31;59082;50.658;4.608;2022-09-01T05:33:25;14.57;87.60
71297;SHT31;59082;50.658;4.608;2022-09-01T05:35:53;14.60;87.55
71297;SHT31;59082;50.658;4.608;2022-09-01T05:38:21;14.60;87.51
71297;SHT31;59082;50.658;4.608;2022-09-01T05:40:55;14.67;87.38
71297;SHT31;59082;50.658;4.608;2022-09-01T05:43:29;14.71;87.30
71297;SHT31;59082;50.658;4.608;2022-09-01T05:45:59;14.80;87.15
71297;SHT31;59082;50.658;4.608;2022-09-01T05:48:29;14.80;87.06
71297;SHT31;59082;50.658;4.608;2022-09-01T05:50:57;14.87;87.17
71297;SHT31;59082;50.658;4.608;2022-09-01T05:53:25;14.88;86.94
71297;SHT31;59082;50.658;4.608;2022-09-01T05:55:52;14.98;87.01
71297;SHT31;59082;50.658;4.608;2022-09-01T05:58:25;14.97;87.20
71297;SHT31;59082;50.658;4.608;2022-09-01T06:00:53;15.01;87.13
71297;SHT31;59082;50.658;4.608;2022-09-01T06:03:21;15.08;86.97
71297;SHT31;59082;50.658;4.608;2022-09-01T06:05:49;15.21;86.68
71297;SHT31;59082;50.658;4.608;2022-09-01T06:08:19;15.32;86.27
71297;SHT31;59082;50.658;4.608;2022-09-01T06:10:46;15.42;85.98
71297;SHT31;59082;50.658;4.608;2022-09-01T06:13:13;15.45;85.77
71297;SHT31;59082;50.658;4.608;2022-09-01T06:15:40;15.53;85.70
71297;SHT31;59082;50.658;4.608;2022-09-01T06:18:09;15.56;85.73
71297;SHT31;59082;50.658;4.608;2022-09-01T06:20:43;15.63;85.67
71297;SHT31;59082;50.658;4.608;2022-09-01T06:23:10;15.70;85.37
71297;SHT31;59082;50.658;4.608;2022-09-01T06:25:40;15.79;85.20
71297;SHT31;59082;50.658;4.608;2022-09-01T06:28:08;15.87;85.00
71297;SHT31;59082;50.658;4.608;2022-09-01T06:30:36;15.94;84.74
71297;SHT31;59082;50.658;4.608;2022-09-01T06:33:03;15.94;84.57
71297;SHT31;59082;50.658;4.608;2022-09-01T06:35:34;15.97;84.66
71297;SHT31;59082;50.658;4.608;2022-09-01T06:38:00;16.07;84.78
71297;SHT31;59082;50.658;4.608;2022-09-01T06:40:27;16.15;84.38
71297;SHT31;59082;50.658;4.608;2022-09-01T06:42:52;16.24;84.44
71297;SHT31;59082;50.658;4.608;2022-09-01T06:45:20;16.39;83.74
71297;SHT31;59082;50.658;4.608;2022-09-01T06:47:48;16.53;83.68
71297;SHT31;59082;50.658;4.608;2022-09-01T06:50:17;16.72;83.10
71297;SHT31;59082;50.658;4.608;2022-09-01T06:52:45;16.81;82.92
71297;SHT31;59082;50.658;4.608;2022-09-01T06:55:12;16.99;82.32
71297;SHT31;59082;50.658;4.608;2022-09-01T06:57:39;17.11;82.07
71297;SHT31;59082;50.658;4.608;2022-09-01T07:00:07;17.25;81.82
71297;SHT31;59082;50.658;4.608;2022-09-01T07:02:44;17.38;81.22
71297;SHT31;59082;50.658;4.608;2022-09-01T07:05:10;17.44;80.89
71297;SHT31;59082;50.658;4.608;2022-09-01T07:07:36;17.62;80.82
71297;SHT31;59082;50.658;4.608;2022-09-01T07:10:03;17.85;80.46
71297;SHT31;59082;50.658;4.608;2022-09-01T07:12:28;18.13;79.90
71297;SHT31;59082;50.658;4.608;2022-09-01T07:14:54;18.31;79.12
71297;SHT31;59082;50.658;4.608;2022-09-01T07:17:21;18.55;78.82
71297;SHT31;59082;50.658;4.608;2022-09-01T07:19:48;18.69;78.17
71297;SHT31;59082;50.658;4.608;2022-09-01T07:22:14;18.96;77.62
71297;SHT31;59082;50.658;4.608;2022-09-01T07:24:39;19.17;77.25
71297;SHT31;59082;50.658;4.608;2022-09-01T07:27:05;19.35;77.16
71297;SHT31;59082;50.658;4.608;2022-09-01T07:29:31;19.44;76.81
71297;SHT31;59082;50.658;4.608;2022-09-01T07:31:57;19.77;76.44
71297;SHT31;59082;50.658;4.608;2022-09-01T07:34:23;19.95;75.81
71297;SHT31;59082;50.658;4.608;2022-09-01T07:36:50;20.08;75.55
71297;SHT31;59082;50.658;4.608;2022-09-01T07:39:19;20.33;75.11
71297;SHT31;59082;50.658;4.608;2022-09-01T07:41:45;20.50;74.41
71297;SHT31;59082;50.658;4.608;2022-09-01T07:44:10;20.58;74.38
71297;SHT31;59082;50.658;4.608;2022-09-01T07:46:38;20.94;74.28
71297;SHT31;59082;50.658;4.608;2022-09-01T07:49:04;21.11;73.00
71297;SHT31;59082;50.658;4.608;2022-09-01T07:51:30;21.19;72.93
71297;SHT31;59082;50.658;4.608;2022-09-01T07:53:57;21.50;73.31
71297;SHT31;59082;50.658;4.608;2022-09-01T07:56:23;21.73;71.60
71297;SHT31;59082;50.658;4.608;2022-09-01T07:58:50;21.90;70.92
71297;SHT31;59082;50.658;4.608;2022-09-01T08:01:19;22.12;70.95
71297;SHT31;59082;50.658;4.608;2022-09-01T08:03:49;22.08;70.84
71297;SHT31;59082;50.658;4.608;2022-09-01T08:06:17;21.98;70.42
71297;SHT31;59082;50.658;4.608;2022-09-01T08:08:50;22.28;70.64
71297;SHT31;59082;50.658;4.608;2022-09-01T08:11:18;22.43;69.34
71297;SHT31;59082;50.658;4.608;2022-09-01T08:13:44;22.57;68.82
71297;SHT31;59082;50.658;4.608;2022-09-01T08:16:10;22.56;68.94
71297;SHT31;59082;50.658;4.608;2022-09-01T08:18:36;22.56;69.25
71297;SHT31;59082;50.658;4.608;2022-09-01T08:21:10;22.87;68.84
71297;SHT31;59082;50.658;4.608;2022-09-01T08:23:36;23.04;67.99
71297;SHT31;59082;50.658;4.608;2022-09-01T08:26:14;23.30;67.39
71297;SHT31;59082;50.658;4.608;2022-09-01T08:28:40;23.56;66.85
71297;SHT31;59082;50.658;4.608;2022-09-01T08:31:11;23.82;65.90
71297;SHT31;59082;50.658;4.608;2022-09-01T08:33:40;23.97;67.07
71297;SHT31;59082;50.658;4.608;2022-09-01T08:36:08;23.97;65.39
71297;SHT31;59082;50.658;4.608;2022-09-01T08:38:34;24.12;65.45
71297;SHT31;59082;50.658;4.608;2022-09-01T08:41:00;24.37;65.30
71297;SHT31;59082;50.658;4.608;2022-09-01T08:44:04;24.60;64.44
71297;SHT31;59082;50.658;4.608;2022-09-01T08:46:35;24.75;64.48
71297;SHT31;59082;50.658;4.608;2022-09-01T08:49:20;24.78;63.83
71297;SHT31;59082;50.658;4.608;2022-09-01T08:51:52;25.15;63.60
71297;SHT31;59082;50.658;4.608;2022-09-01T08:54:38;25.78;63.64
71297;SHT31;59082;50.658;4.608;2022-09-01T08:57:19;26.03;62.61
71297;SHT31;59082;50.658;4.608;2022-09-01T08:59:46;26.22;61.95
71297;SHT31;59082;50.658;4.608;2022-09-01T09:08:45;27.25;60.28
71297;SHT31;59082;50.658;4.608;2022-09-01T09:16:25;27.57;58.68
71297;SHT31;59082;50.658;4.608;2022-09-01T09:18:56;27.84;58.60
71297;SHT31;59082;50.658;4.608;2022-09-01T09:21:28;28.39;57.71
71297;SHT31;59082;50.658;4.608;2022-09-01T09:24:10;28.10;57.28
71297;SHT31;59082;50.658;4.608;2022-09-01T09:26:37;28.52;57.30
71297;SHT31;59082;50.658;4.608;2022-09-01T09:29:03;29.04;56.31
71297;SHT31;59082;50.658;4.608;2022-09-01T09:31:33;29.02;55.72
71297;SHT31;59082;50.658;4.608;2022-09-01T09:33:59;29.23;56.11
71297;SHT31;59082;50.658;4.608;2022-09-01T09:36:32;29.18;54.46
71297;SHT31;59082;50.658;4.608;2022-09-01T09:39:05;28.73;55.02
71297;SHT31;59082;50.658;4.608;2022-09-01T09:41:31;29.50;54.10
71297;SHT31;59082;50.658;4.608;2022-09-01T09:44:20;29.52;54.53
71297;SHT31;59082;50.658;4.608;2022-09-01T09:46:45;29.58;54.06
71297;SHT31;59082;50.658;4.608;2022-09-01T09:51:47;30.69;52.14
71297;SHT31;59082;50.658;4.608;2022-09-01T09:54:24;30.45;51.62
71297;SHT31;59082;50.658;4.608;2022-09-01T09:59:45;31.18;50.56
71297;SHT31;59082;50.658;4.608;2022-09-01T10:04:45;30.84;50.46
71297;SHT31;59082;50.658;4.608;2022-09-01T10:07:31;30.82;50.89
71297;SHT31;59082;50.658;4.608;2022-09-01T10:10:01;31.20;49.02
71297;SHT31;59082;50.658;4.608;2022-09-01T10:12:28;32.08;48.43
71297;SHT31;59082;50.658;4.608;2022-09-01T10:15:06;31.60;47.81
71297;SHT31;59082;50.658;4.608;2022-09-01T10:17:38;31.66;46.82
71297;SHT31;59082;50.658;4.608;2022-09-01T10:20:09;32.33;47.26
71297;SHT31;59082;50.658;4.608;2022-09-01T10:22:37;32.74;46.75
71297;SHT31;59082;50.658;4.608;2022-09-01T10:25:05;33.72;44.53
71297;SHT31;59082;50.658;4.608;2022-09-01T10:27:36;33.72;43.93
71297;SHT31;59082;50.658;4.608;2022-09-01T10:30:12;33.21;43.97
71297;SHT31;59082;50.658;4.608;2022-09-01T10:32:51;33.55;44.56
71297;SHT31;59082;50.658;4.608;2022-09-01T10:35:45;34.13;43.06
71297;SHT31;59082;50.658;4.608;2022-09-01T10:38:15;34.47;42.99
71297;SHT31;59082;50.658;4.608;2022-09-01T10:40:44;34.94;42.85
71297;SHT31;59082;50.658;4.608;2022-09-01T10:43:35;34.10;43.12
71297;SHT31;59082;50.658;4.608;2022-09-01T10:48:57;35.42;42.26
71297;SHT31;59082;50.658;4.608;2022-09-01T10:53:56;35.71;42.27
71297;SHT31;59082;50.658;4.608;2022-09-01T11:04:22;36.80;39.69
71297;SHT31;59082;50.658;4.608;2022-09-01T11:10:08;37.94;40.41
71297;SHT31;59082;50.658;4.608;2022-09-01T11:12:48;38.10;39.43
71297;SHT31;59082;50.658;4.608;2022-09-01T11:15:39;37.57;39.37
71297;SHT31;59082;50.658;4.608;2022-09-01T11:18:29;38.21;39.16
71297;SHT31;59082;50.658;4.608;2022-09-01T11:21:14;38.09;38.61
71297;SHT31;59082;50.658;4.608;2022-09-01T11:23:40;38.67;38.52
71297;SHT31;59082;50.658;4.608;2022-09-01T11:28:54;38.00;39.02
71297;SHT31;59082;50.658;4.608;2022-09-01T11:31:23;38.65;37.91
71297;SHT31;59082;50.658;4.608;2022-09-01T11:34:12;39.37;36.98
71297;SHT31;59082;50.658;4.608;2022-09-01T11:36:58;40.71;36.79
71297;SHT31;59082;50.658;4.608;2022-09-01T11:39:45;41.56;36.29
71297;SHT31;59082;50.658;4.608;2022-09-01T11:44:50;41.79;35.66
71297;SHT31;59082;50.658;4.608;2022-09-01T11:52:17;43.62;34.42
71297;SHT31;59082;50.658;4.608;2022-09-01T11:54:44;43.89;33.82
71297;SHT31;59082;50.658;4.608;2022-09-01T11:57:33;45.55;33.42
71297;SHT31;59082;50.658;4.608;2022-09-01T12:00:04;45.83;32.59
71297;SHT31;59082;50.658;4.608;2022-09-01T12:02:32;46.23;32.68
71297;SHT31;59082;50.658;4.608;2022-09-01T12:05:00;46.27;32.35
71297;SHT31;59082;50.658;4.608;2022-09-01T12:07:40;47.12;31.77
71297;SHT31;59082;50.658;4.608;2022-09-01T12:10:20;47.25;31.50
71297;SHT31;59082;50.658;4.608;2022-09-01T12:13:20;47.54;31.32
71297;SHT31;59082;50.658;4.608;2022-09-01T12:15:55;46.30;31.85
71297;SHT31;59082;50.658;4.608;2022-09-01T12:18:24;45.27;32.81
71297;SHT31;59082;50.658;4.608;2022-09-01T12:20:52;44.18;33.46
71297;SHT31;59082;50.658;4.608;2022-09-01T12:23:26;42.92;34.19
71297;SHT31;59082;50.658;4.608;2022-09-01T12:25:58;43.76;33.46
71297;SHT31;59082;50.658;4.608;2022-09-01T12:28:26;46.27;32.14
71297;SHT31;59082;50.658;4.608;2022-09-01T12:30:55;47.08;31.75
71297;SHT31;59082;50.658;4.608;2022-09-01T12:33:22;48.97;30.87
71297;SHT31;59082;50.658;4.608;2022-09-01T12:35:49;48.61;30.67
71297;SHT31;59082;50.658;4.608;2022-09-01T12:40:43;49.41;30.55
71297;SHT31;59082;50.658;4.608;2022-09-01T12:43:10;50.29;30.09
71297;SHT31;59082;50.658;4.608;2022-09-01T12:45:46;49.82;30.25
71297;SHT31;59082;50.658;4.608;2022-09-01T12:48:32;48.31;30.79
71297;SHT31;59082;50.658;4.608;2022-09-01T12:53:50;49.05;30.61
71297;SHT31;59082;50.658;4.608;2022-09-01T12:56:20;49.50;30.26
71297;SHT31;59082;50.658;4.608;2022-09-01T12:58:49;49.68;30.44
71297;SHT31;59082;50.658;4.608;2022-09-01T13:01:30;48.58;30.87
71297;SHT31;59082;50.658;4.608;2022-09-01T13:04:28;47.13;30.85
71297;SHT31;59082;50.658;4.608;2022-09-01T13:07:03;50.29;30.69
71297;SHT31;59082;50.658;4.608;2022-09-01T13:09:29;49.75;30.53
71297;SHT31;59082;50.658;4.608;2022-09-01T13:12:18;49.60;30.64
71297;SHT31;59082;50.658;4.608;2022-09-01T13:14:44;49.16;30.48
71297;SHT31;59082;50.658;4.608;2022-09-01T13:17:09;46.04;31.89
71297;SHT31;59082;50.658;4.608;2022-09-01T13:19:36;46.16;32.54
71297;SHT31;59082;50.658;4.608;2022-09-01T13:22:03;45.59;31.65
71297;SHT31;59082;50.658;4.608;2022-09-01T13:24:29;46.36;31.57
71297;SHT31;59082;50.658;4.608;2022-09-01T13:26:54;47.83;30.98
71297;SHT31;59082;50.658;4.608;2022-09-01T13:29:22;48.49;30.83
71297;SHT31;59082;50.658;4.608;2022-09-01T13:31:48;49.60;30.18
71297;SHT31;59082;50.658;4.608;2022-09-01T13:34:13;49.54;30.91
71297;SHT31;59082;50.658;4.608;2022-09-01T13:36:39;49.23;30.02
71297;SHT31;59082;50.658;4.608;2022-09-01T13:39:05;49.68;30.12
71297;SHT31;59082;50.658;4.608;2022-09-01T13:41:30;47.28;30.76
71297;SHT31;59082;50.658;4.608;2022-09-01T13:43:56;49.47;29.64
71297;SHT31;59082;50.658;4.608;2022-09-01T13:46:22;47.28;31.14
71297;SHT31;59082;50.658;4.608;2022-09-01T13:48:47;44.02;32.41
71297;SHT31;59082;50.658;4.608;2022-09-01T13:51:24;40.96;34.51
71297;SHT31;59082;50.658;4.608;2022-09-01T13:53:51;39.92;35.33
71297;SHT31;59082;50.658;4.608;2022-09-01T13:56:16;39.56;35.82
71297;SHT31;59082;50.658;4.608;2022-09-01T13:58:42;41.69;34.44
71297;SHT31;59082;50.658;4.608;2022-09-01T14:01:07;45.44;31.96
71297;SHT31;59082;50.658;4.608;2022-09-01T14:03:33;46.92;31.09
71297;SHT31;59082;50.658;4.608;2022-09-01T14:05:59;49.89;29.75
71297;SHT31;59082;50.658;4.608;2022-09-01T14:08:24;50.50;29.37
71297;SHT31;59082;50.658;4.608;2022-09-01T14:10:52;51.22;28.85
71297;SHT31;59082;50.658;4.608;2022-09-01T14:13:22;51.49;28.71
71297;SHT31;59082;50.658;4.608;2022-09-01T14:15:49;51.66;28.52
71297;SHT31;59082;50.658;4.608;2022-09-01T14:18:18;53.49;27.89
71297;SHT31;59082;50.658;4.608;2022-09-01T14:20:48;54.29;27.96
71297;SHT31;59082;50.658;4.608;2022-09-01T14:23:16;54.27;27.85
71297;SHT31;59082;50.658;4.608;2022-09-01T14:25:44;53.88;27.73
71297;SHT31;59082;50.658;4.608;2022-09-01T14:28:10;52.88;27.92
71297;SHT31;59082;50.658;4.608;2022-09-01T14:30:38;52.91;27.71
71297;SHT31;59082;50.658;4.608;2022-09-01T14:33:04;51.49;28.38
71297;SHT31;59082;50.658;4.608;2022-09-01T14:35:32;51.45;28.48
71297;SHT31;59082;50.658;4.608;2022-09-01T14:37:59;49.92;29.04
71297;SHT31;59082;50.658;4.608;2022-09-01T14:40:25;47.81;29.73
71297;SHT31;59082;50.658;4.608;2022-09-01T14:42:53;42.64;32.42
71297;SHT31;59082;50.658;4.608;2022-09-01T14:45:21;38.75;35.11
71297;SHT31;59082;50.658;4.608;2022-09-01T14:47:49;36.05;37.36
71297;SHT31;59082;50.658;4.608;2022-09-01T14:50:16;34.58;39.12
71297;SHT31;59082;50.658;4.608;2022-09-01T14:52:42;32.88;40.32
71297;SHT31;59082;50.658;4.608;2022-09-01T14:55:08;31.66;41.91
71297;SHT31;59082;50.658;4.608;2022-09-01T14:57:34;31.13;42.36
71297;SHT31;59082;50.658;4.608;2022-09-01T14:59:59;30.76;42.52
71297;SHT31;59082;50.658;4.608;2022-09-01T15:02:25;30.16;43.23
71297;SHT31;59082;50.658;4.608;2022-09-01T15:04:54;29.89;44.05
71297;SHT31;59082;50.658;4.608;2022-09-01T15:07:21;29.55;44.16
71297;SHT31;59082;50.658;4.608;2022-09-01T15:09:47;28.55;45.56
71297;SHT31;59082;50.658;4.608;2022-09-01T15:12:12;28.63;46.12
71297;SHT31;59082;50.658;4.608;2022-09-01T15:14:38;28.45;45.93
71297;SHT31;59082;50.658;4.608;2022-09-01T15:17:04;28.17;46.18
71297;SHT31;59082;50.658;4.608;2022-09-01T15:19:31;29.13;44.79
71297;SHT31;59082;50.658;4.608;2022-09-01T15:21:56;29.89;44.11
71297;SHT31;59082;50.658;4.608;2022-09-01T15:24:22;30.93;42.81
71297;SHT31;59082;50.658;4.608;2022-09-01T15:26:48;30.40;43.63
71297;SHT31;59082;50.658;4.608;2022-09-01T15:29:14;35.71;39.19
71297;SHT31;59082;50.658;4.608;2022-09-01T15:31:41;35.98;37.76
71297;SHT31;59082;50.658;4.608;2022-09-01T15:34:08;34.85;39.19
71297;SHT31;59082;50.658;4.608;2022-09-01T15:36:36;37.62;37.08
71297;SHT31;59082;50.658;4.608;2022-09-01T15:39:04;39.40;35.43
71297;SHT31;59082;50.658;4.608;2022-09-01T15:41:31;42.47;33.25
71297;SHT31;59082;50.658;4.608;2022-09-01T15:43:58;42.69;32.73
71297;SHT31;59082;50.658;4.608;2022-09-01T15:46:24;42.78;33.05
71297;SHT31;59082;50.658;4.608;2022-09-01T15:49:02;46.03;31.31
71297;SHT31;59082;50.658;4.608;2022-09-01T15:54:05;38.67;35.89
71297;SHT31;59082;50.658;4.608;2022-09-01T15:56:31;43.94;32.96
71297;SHT31;59082;50.658;4.608;2022-09-01T15:58:57;43.91;33.07
71297;SHT31;59082;50.658;4.608;2022-09-01T16:01:25;45.11;31.78
71297;SHT31;59082;50.658;4.608;2022-09-01T16:03:50;46.61;31.36
71297;SHT31;59082;50.658;4.608;2022-09-01T16:06:16;46.16;30.83
71297;SHT31;59082;50.658;4.608;2022-09-01T16:08:41;44.83;32.26
71297;SHT31;59082;50.658;4.608;2022-09-01T16:11:09;43.39;32.51
71297;SHT31;59082;50.658;4.608;2022-09-01T16:13:36;42.92;33.44
71297;SHT31;59082;50.658;4.608;2022-09-01T16:16:11;41.96;33.28
71297;SHT31;59082;50.658;4.608;2022-09-01T16:24:12;41.14;33.89
71297;SHT31;59082;50.658;4.608;2022-09-01T16:26:38;40.13;35.10
71297;SHT31;59082;50.658;4.608;2022-09-01T16:29:31;39.30;35.58
71297;SHT31;59082;50.658;4.608;2022-09-01T16:31:58;38.28;36.00
71297;SHT31;59082;50.658;4.608;2022-09-01T16:34:24;38.07;36.30
71297;SHT31;59082;50.658;4.608;2022-09-01T16:37:00;38.44;36.31
71297;SHT31;59082;50.658;4.608;2022-09-01T16:42:24;36.19;38.50
71297;SHT31;59082;50.658;4.608;2022-09-01T16:51:26;31.66;42.51
71297;SHT31;59082;50.658;4.608;2022-09-01T17:01:43;28.47;46.72
71297;SHT31;59082;50.658;4.608;2022-09-01T17:04:36;27.96;47.34
71297;SHT31;59082;50.658;4.608;2022-09-01T17:09:57;26.92;49.11